Time;durP1;ratioP1;P1;durP2;ratioP2;P2;SDS_P1;SDS_P2;PMS_P1;PMS_P2;Temp;Humidity;BMP_temperature;BMP_pressure;BME280_temperature;BME280_humidity;BME280_pressure;Samples;Min_cycle;Max_cycle;Signal;HPM_P1;HPM_P2
2021/03/29 00:01:49;;;;;;;;;;;;;;;23.42;36.87;101220.19;4483857;32;34167;-54
2021/03/29 00:04:16;;;;;;;;;;;;;;;23.42;36.98;101229.22;4486139;31;34763;-57
2021/03/29 00:06:43;;;;;;;;;;;;;;;23.41;36.78;101229.41;4484333;31;33897;-54
2021/03/29 00:09:09;;;;;;;;;;;;;;;23.41;36.88;101230.25;4482733;32;34147;-57
2021/03/29 00:11:38;;;;;;;;;;;;;;;23.41;36.78;101230.25;4484515;32;34052;-58
2021/03/29 00:14:05;;;;;;;;;;;;;;;23.40;36.79;101228.53;4483237;32;34038;-58
2021/03/29 00:16:31;;;;;;;;;;;;;;;23.40;36.91;101231.25;4484634;32;33980;-57
2021/03/29 00:18:58;;;;;;;;;;;;;;;23.40;37.09;101233.16;4483259;32;34113;-58
2021/03/29 00:21:25;;;;;;;;;;;;;;;23.40;37.09;101230.41;4476026;32;34719;-53
2021/03/29 00:23:52;;;;;;;;;;;;;;;23.38;37.09;101236.06;4482894;32;34328;-51
2021/03/29 00:26:19;;;;;;;;;;;;;;;23.38;37.02;101227.91;4480364;31;33577;-57
2021/03/29 00:28:46;;;;;;;;;;;;;;;23.38;37.03;101233.34;4482524;31;34179;-58
2021/03/29 00:31:13;;;;;;;;;;;;;;;23.38;36.99;101237.94;4468483;32;34937;-55
2021/03/29 00:33:40;;;;;;;;;;;;;;;23.37;36.99;101237.13;4480801;32;34044;-56
2021/03/29 00:36:07;;;;;;;;;;;;;;;23.35;37.05;101239.16;4483068;32;33319;-57
2021/03/29 00:38:34;;;;;;;;;;;;;;;23.37;36.92;101237.13;4482651;32;34840;-54
2021/03/29 00:41:04;;;;;;;;;;;;;;;23.39;37.05;101236.91;4484210;32;33734;-55
2021/03/29 00:43:31;;;;;;;;;;;;;;;23.39;37.04;101243.19;4484225;32;34113;-55
2021/03/29 00:45:58;;;;;;;;;;;;;;;23.38;36.85;101240.69;4483979;32;33980;-53
2021/03/29 00:48:25;;;;;;;;;;;;;;;23.37;37.08;101244.44;4484081;32;35563;-58
2021/03/29 00:50:54;;;;;;;;;;;;;;;23.37;37.16;101241.72;4482593;32;34120;-57
2021/03/29 00:53:21;;;;;;;;;;;;;;;23.36;36.94;101240.87;4483614;32;34144;-56
2021/03/29 00:55:49;;;;;;;;;;;;;;;23.35;36.92;101232.88;4483751;32;33375;-57
2021/03/29 00:58:16;;;;;;;;;;;;;;;23.34;36.79;101233.91;4482876;32;33971;-57
2021/03/29 01:00:50;;;;;;;;;;;;;;;23.34;36.98;101236.66;4483624;32;35228;-56
2021/03/29 01:03:18;;;;;;;;;;;;;;;23.32;36.81;101236.00;4484062;32;33935;-55
2021/03/29 01:05:46;;;;;;;;;;;;;;;23.32;36.84;101239.56;4484035;32;33264;-57
2021/03/29 01:08:14;;;;;;;;;;;;;;;23.31;36.83;101231.56;4484047;32;34138;-58
2021/03/29 01:10:41;;;;;;;;;;;;;;;23.29;36.80;101237.22;4483892;32;34576;-54
2021/03/29 01:13:08;;;;;;;;;;;;;;;23.29;36.98;101239.94;4483693;32;34266;-52
2021/03/29 01:15:36;;;;;;;;;;;;;;;23.29;36.89;101248.13;4483727;32;33782;-56
2021/03/29 01:18:04;;;;;;;;;;;;;;;23.30;37.01;101248.94;4483765;32;34102;-52
2021/03/29 01:20:48;;;;;;;;;;;;;;;23.28;37.14;101249.16;4483645;32;33722;-56
2021/03/29 01:23:15;;;;;;;;;;;;;;;23.28;37.03;101249.16;4482760;32;34468;-56
2021/03/29 01:25:41;;;;;;;;;;;;;;;23.27;37.20;101249.31;4483602;32;33274;-57
2021/03/29 01:28:09;;;;;;;;;;;;;;;23.26;37.24;101244.91;4483689;32;34812;-56
2021/03/29 01:30:37;;;;;;;;;;;;;;;23.26;37.25;101247.63;4483622;32;34145;-55
2021/03/29 01:33:04;;;;;;;;;;;;;;;23.25;37.20;101249.53;4483629;32;33757;-57
2021/03/29 01:35:40;;;;;;;;;;;;;;;23.24;37.03;101236.94;4483557;32;33082;-56
2021/03/29 01:38:07;;;;;;;;;;;;;;;23.24;37.18;101242.41;4482072;32;33934;-51
2021/03/29 01:40:35;;;;;;;;;;;;;;;23.23;37.28;101238.00;4485274;32;34140;-57
2021/03/29 01:43:01;;;;;;;;;;;;;;;23.23;37.34;101238.00;4484385;32;33934;-57
2021/03/29 01:45:28;;;;;;;;;;;;;;;23.23;37.34;101242.59;4485799;32;33092;-58
2021/03/29 01:47:55;;;;;;;;;;;;;;;23.22;37.25;101239.00;4483883;32;34138;-57
2021/03/29 01:50:23;;;;;;;;;;;;;;;23.22;37.13;101238.16;4483849;32;34668;-56
2021/03/29 01:52:50;;;;;;;;;;;;;;;23.22;37.09;101233.56;4485224;32;33915;-56
2021/03/29 01:55:17;;;;;;;;;;;;;;;23.24;37.05;101233.37;4483953;32;33362;-57
2021/03/29 01:57:44;;;;;;;;;;;;;;;23.23;37.09;101235.28;4484036;32;33810;-57
2021/03/29 02:00:16;;;;;;;;;;;;;;;23.24;37.08;101228.78;4485086;32;34908;-57
2021/03/29 02:02:43;;;;;;;;;;;;;;;23.23;37.05;101232.53;4485078;32;34959;-57
2021/03/29 02:05:11;;;;;;;;;;;;;;;23.22;37.48;101224.53;4484251;32;33498;-55
2021/03/29 02:07:37;;;;;;;;;;;;;;;23.22;37.34;101221.81;4485285;32;34036;-53
2021/03/29 02:10:09;;;;;;;;;;;;;;;23.22;37.50;101222.66;4483404;32;34884;-56
2021/03/29 02:12:36;;;;;;;;;;;;;;;23.22;37.12;101219.09;4482245;32;34835;-53
2021/03/29 02:15:04;;;;;;;;;;;;;;;23.21;37.42;101218.25;4485493;32;33759;-55
2021/03/29 02:17:31;;;;;;;;;;;;;;;23.20;37.37;101222.03;4483803;32;34001;-57
2021/03/29 02:19:58;;;;;;;;;;;;;;;23.20;37.48;101221.19;4473812;32;34932;-50
2021/03/29 02:22:24;;;;;;;;;;;;;;;23.20;37.18;101213.00;4482032;32;34245;-52
2021/03/29 02:24:51;;;;;;;;;;;;;;;23.20;37.11;101221.19;4485014;32;33343;-57
2021/03/29 02:27:18;;;;;;;;;;;;;;;23.17;37.10;101215.09;4483896;32;35165;-56
2021/03/29 02:29:45;;;;;;;;;;;;;;;23.17;37.22;101217.81;4470453;32;34278;-53
2021/03/29 02:32:12;;;;;;;;;;;;;;;23.18;37.42;101218.66;4484540;32;35110;-56
2021/03/29 02:34:39;;;;;;;;;;;;;;;23.17;37.51;101226.00;4483495;32;33127;-53
2021/03/29 02:37:05;;;;;;;;;;;;;;;23.17;37.59;101220.53;4483310;32;34064;-50
2021/03/29 02:39:32;;;;;;;;;;;;;;;23.16;37.56;101221.56;4483243;32;34062;-54
2021/03/29 02:41:59;;;;;;;;;;;;;;;23.16;37.58;101226.16;4483371;32;33864;-53
2021/03/29 02:44:26;;;;;;;;;;;;;;;23.16;37.54;101227.00;4483384;32;32973;-56
2021/03/29 02:46:53;;;;;;;;;;;;;;;23.14;37.37;101220.91;4483199;32;34217;-54
2021/03/29 02:49:20;;;;;;;;;;;;;;;23.15;37.38;101219.87;4481193;31;35159;-57
2021/03/29 02:51:49;;;;;;;;;;;;;;;23.14;37.25;101215.47;4480777;31;34180;-58
2021/03/29 02:54:16;;;;;;;;;;;;;;;23.14;37.24;101217.34;4472532;32;34128;-57
2021/03/29 02:56:43;;;;;;;;;;;;;;;23.13;37.25;101219.22;4481025;32;33546;-52
2021/03/29 02:59:14;;;;;;;;;;;;;;;23.13;37.27;101221.94;4484862;32;33802;-49
2021/03/29 03:01:41;;;;;;;;;;;;;;;23.13;37.54;101221.94;4485096;31;34142;-57
2021/03/29 03:04:12;;;;;;;;;;;;;;;23.13;37.63;101224.69;4475769;31;32868;-53
2021/03/29 03:06:39;;;;;;;;;;;;;;;23.13;37.73;101226.56;4483914;32;33055;-52
2021/03/29 03:09:10;;;;;;;;;;;;;;;23.13;37.73;101221.13;4484743;32;34020;-49
2021/03/29 03:11:37;;;;;;;;;;;;;;;23.13;37.79;101221.94;4484288;31;34714;-54
2021/03/29 03:14:04;;;;;;;;;;;;;;;23.12;37.63;101222.97;4476884;31;33283;-57
2021/03/29 03:16:32;;;;;;;;;;;;;;;23.12;37.80;101222.12;4484612;32;34242;-57
2021/03/29 03:18:58;;;;;;;;;;;;;;;23.12;37.75;101222.97;4484862;32;34099;-57
2021/03/29 03:21:26;;;;;;;;;;;;;;;23.12;37.66;101224.84;4484814;32;34150;-53
2021/03/29 03:23:54;;;;;;;;;;;;;;;23.11;37.64;101217.72;4483512;32;32876;-49
2021/03/29 03:26:27;;;;;;;;;;;;;;;23.11;37.76;101229.44;4484824;32;34954;-47
2021/03/29 03:28:55;;;;;;;;;;;;;;;23.09;37.76;101217.91;4484951;32;34961;-56
2021/03/29 03:31:22;;;;;;;;;;;;;;;23.10;37.76;101219.59;4484786;32;34715;-53
2021/03/29 03:33:50;;;;;;;;;;;;;;;23.11;37.78;101215.00;4484794;32;34062;-51
2021/03/29 03:36:17;;;;;;;;;;;;;;;23.08;37.74;101213.50;4485355;31;34943;-56
2021/03/29 03:38:45;;;;;;;;;;;;;;;23.09;37.71;101212.47;4500383;31;34187;-51
2021/03/29 03:41:12;;;;;;;;;;;;;;;23.09;37.79;101208.91;4500312;31;34797;-56
2021/03/29 03:43:44;;;;;;;;;;;;;;;23.09;37.81;101212.47;4500516;31;33499;-56
2021/03/29 03:46:17;;;;;;;;;;;;;;;23.09;37.74;101208.91;4485958;31;33473;-57
2021/03/29 03:48:51;;;;;;;;;;;;;;;23.08;37.73;101208.06;4500744;31;34219;-56
2021/03/29 03:51:18;;;;;;;;;;;;;;;23.07;37.47;101197.34;4500289;31;34109;-53
2021/03/29 03:53:45;;;;;;;;;;;;;;;23.06;37.75;101201.94;4486398;31;33639;-56
2021/03/29 03:56:11;;;;;;;;;;;;;;;23.07;37.54;101203.63;4486121;31;33996;-57
2021/03/29 03:58:38;;;;;;;;;;;;;;;23.06;37.71;101199.22;4486266;31;35030;-55
2021/03/29 04:01:08;;;;;;;;;;;;;;;23.06;37.62;101203.84;4485630;31;34992;-58
2021/03/29 04:03:35;;;;;;;;;;;;;;;23.05;37.69;101200.28;4485963;31;33372;-57
2021/03/29 04:06:02;;;;;;;;;;;;;;;23.04;37.69;101204.03;4500114;31;34207;-51
2021/03/29 04:08:41;;;;;;;;;;;;;;;23.04;37.70;101206.75;4468894;32;33818;-56
2021/03/29 04:11:08;;;;;;;;;;;;;;;23.05;37.53;101208.44;4469057;32;33276;-59
2021/03/29 04:13:35;;;;;;;;;;;;;;;23.04;37.59;101209.47;4468838;32;34071;-54
2021/03/29 04:16:03;;;;;;;;;;;;;;;23.04;37.58;101208.62;4468874;32;33807;-57
2021/03/29 04:18:30;;;;;;;;;;;;;;;23.03;37.71;101207.75;4468606;32;34922;-56
2021/03/29 04:20:58;;;;;;;;;;;;;;;23.04;37.75;101208.62;4468697;32;35494;-58
2021/03/29 04:23:25;;;;;;;;;;;;;;;23.03;37.72;101221.38;4468788;32;33279;-56
2021/03/29 04:25:53;;;;;;;;;;;;;;;23.02;37.67;101214.25;4468578;32;34031;-57
2021/03/29 04:28:20;;;;;;;;;;;;;;;23.04;37.69;101222.25;4468630;32;34118;-57
2021/03/29 04:30:47;;;;;;;;;;;;;;;23.02;37.82;101216.13;4468685;32;34257;-58
2021/03/29 04:33:14;;;;;;;;;;;;;;;23.02;37.84;101227.03;4468503;32;33452;-58
2021/03/29 04:35:41;;;;;;;;;;;;;;;23.02;37.56;101227.03;4468577;32;34636;-56
2021/03/29 04:38:08;;;;;;;;;;;;;;;23.01;37.55;101225.34;4468437;32;34923;-58
2021/03/29 04:40:35;;;;;;;;;;;;;;;23.01;37.72;101228.91;4467234;32;34514;-57
2021/03/29 04:43:02;;;;;;;;;;;;;;;23.00;37.59;101235.38;4468599;32;33205;-57
2021/03/29 04:45:29;;;;;;;;;;;;;;;23.00;37.58;101232.66;4468544;32;34188;-59
2021/03/29 04:47:56;;;;;;;;;;;;;;;22.99;37.61;101228.25;4468424;32;33949;-55
2021/03/29 04:50:23;;;;;;;;;;;;;;;23.00;37.61;101234.53;4468391;32;34482;-56
2021/03/29 04:52:51;;;;;;;;;;;;;;;22.99;37.67;101239.16;4475342;32;33349;-52
2021/03/29 04:55:17;;;;;;;;;;;;;;;22.98;37.64;101232.00;4483100;32;34109;-53
2021/03/29 04:57:44;;;;;;;;;;;;;;;22.98;37.63;101232.00;4483935;32;33986;-51
2021/03/29 05:00:12;;;;;;;;;;;;;;;22.97;37.56;101240.34;4484036;32;34925;-50
2021/03/29 05:02:38;;;;;;;;;;;;;;;22.98;37.60;101240.16;4484074;32;32828;-56
2021/03/29 05:05:06;;;;;;;;;;;;;;;22.98;37.62;101239.31;4483825;32;34916;-54
2021/03/29 05:07:33;;;;;;;;;;;;;;;22.96;37.52;101244.97;4483775;32;34845;-53
2021/03/29 05:10:01;;;;;;;;;;;;;;;22.97;37.77;101246.66;4483785;32;34088;-53
2021/03/29 05:12:28;;;;;;;;;;;;;;;22.96;37.90;101247.69;4483633;32;33257;-56
2021/03/29 05:14:55;;;;;;;;;;;;;;;22.97;37.97;101246.66;4482362;32;34466;-56
2021/03/29 05:17:22;;;;;;;;;;;;;;;22.97;37.92;101251.25;4483696;32;34135;-55
2021/03/29 05:19:48;;;;;;;;;;;;;;;22.97;37.87;101256.69;4483264;32;34153;-56
2021/03/29 05:22:15;;;;;;;;;;;;;;;22.96;38.01;101266.75;4483803;32;34182;-50
2021/03/29 05:24:42;;;;;;;;;;;;;;;22.96;37.99;101265.91;4483517;32;34290;-57
2021/03/29 05:27:09;;;;;;;;;;;;;;;22.96;37.97;101272.19;4483326;32;34440;-53
2021/03/29 05:29:43;;;;;;;;;;;;;;;22.96;37.64;101274.06;4483434;32;33717;-55
2021/03/29 05:32:10;;;;;;;;;;;;;;;22.97;37.91;101273.87;4483364;32;33983;-56
2021/03/29 05:34:38;;;;;;;;;;;;;;;22.95;37.85;101284.09;4483471;32;34978;-50
2021/03/29 05:37:05;;;;;;;;;;;;;;;22.96;37.92;101272.19;4483187;32;34130;-55
2021/03/29 05:39:32;;;;;;;;;;;;;;;22.96;37.77;101274.91;4483598;32;34321;-57
2021/03/29 05:41:59;;;;;;;;;;;;;;;22.96;37.65;101277.63;4483586;32;34315;-49
2021/03/29 05:44:26;;;;;;;;;;;;;;;22.97;37.98;101275.75;4483224;32;34103;-55
2021/03/29 05:46:53;;;;;;;;;;;;;;;22.97;38.03;101282.03;4481968;32;34059;-57
2021/03/29 05:49:20;;;;;;;;;;;;;;;22.97;38.12;101286.62;4482005;32;33615;-54
2021/03/29 05:51:47;;;;;;;;;;;;;;;22.96;38.08;101290.41;4483237;32;34088;-53
2021/03/29 05:54:14;;;;;;;;;;;;;;;22.96;38.05;101291.25;4483206;32;34085;-53
2021/03/29 05:56:41;;;;;;;;;;;;;;;22.95;38.01;101284.09;4483113;32;33863;-55
2021/03/29 05:59:12;;;;;;;;;;;;;;;22.96;38.00;101280.34;4483468;32;35616;-55
2021/03/29 06:01:51;;;;;;;;;;;;;;;22.96;37.99;101284.94;4483044;32;33263;-57
2021/03/29 06:04:37;;;;;;;;;;;;;;;22.96;38.09;101288.50;4483006;32;34422;-56
2021/03/29 06:07:19;;;;;;;;;;;;;;;22.94;38.05;101285.13;4482835;32;34075;-55
2021/03/29 06:09:46;;;;;;;;;;;;;;;22.94;37.90;101287.84;4483000;32;34374;-57
2021/03/29 06:12:14;;;;;;;;;;;;;;;22.94;37.87;101290.56;4483028;32;34132;-52
2021/03/29 06:14:41;;;;;;;;;;;;;;;22.94;37.75;101285.13;4482831;32;34871;-56
2021/03/29 06:17:14;;;;;;;;;;;;;;;22.94;38.00;101279.66;4482725;32;35068;-56
2021/03/29 06:19:55;;;;;;;;;;;;;;;22.95;37.93;101281.37;4482773;32;34839;-58
2021/03/29 06:22:23;;;;;;;;;;;;;;;22.95;37.97;101286.84;4482813;32;34664;-53
2021/03/29 06:24:50;;;;;;;;;;;;;;;22.93;38.06;101275.28;4483236;32;34835;-56
2021/03/29 06:27:18;;;;;;;;;;;;;;;22.94;38.16;101278.84;4485190;32;34119;-53
2021/03/29 06:29:45;;;;;;;;;;;;;;;22.92;37.95;101285.31;4485039;32;34019;-54
2021/03/29 06:32:16;;;;;;;;;;;;;;;22.94;37.81;101281.56;4484710;32;33485;-56
2021/03/29 06:34:42;;;;;;;;;;;;;;;22.93;38.18;101286.16;4484771;32;34806;-51
2021/03/29 06:37:09;;;;;;;;;;;;;;;22.94;37.83;101293.28;4485052;32;34134;-55
2021/03/29 06:39:37;;;;;;;;;;;;;;;22.93;37.88;101291.59;4485075;32;34029;-55
2021/03/29 06:42:04;;;;;;;;;;;;;;;22.94;37.96;101287.84;4485032;32;33423;-54
2021/03/29 06:44:32;;;;;;;;;;;;;;;22.94;38.06;101289.72;4484992;32;34331;-57
2021/03/29 06:47:12;;;;;;;;;;;;;;;22.95;38.04;101296.88;4484943;32;34042;-53
2021/03/29 06:49:43;;;;;;;;;;;;;;;22.95;37.88;101286.84;4484986;32;34173;-54
2021/03/29 06:52:23;;;;;;;;;;;;;;;22.95;37.98;101294.16;4484958;32;34209;-55
2021/03/29 06:54:50;;;;;;;;;;;;;;;22.93;38.01;101297.03;4484966;32;34747;-53
2021/03/29 06:57:27;;;;;;;;;;;;;;;22.94;37.88;101293.28;4485008;32;33864;-48
2021/03/29 06:59:54;;;;;;;;;;;;;;;22.94;37.93;101292.44;4484931;32;33849;-56
2021/03/29 07:02:40;;;;;;;;;;;;;;;22.94;38.00;101298.72;4484832;32;33637;-56
2021/03/29 07:05:08;;;;;;;;;;;;;;;22.95;38.02;101303.16;4485029;32;33869;-53
2021/03/29 07:07:44;;;;;;;;;;;;;;;22.95;38.11;101294.16;4484936;32;34219;-56
2021/03/29 07:10:12;;;;;;;;;;;;;;;22.95;38.07;101294.16;4484799;32;33987;-57
2021/03/29 07:12:41;;;;;;;;;;;;;;;22.94;38.04;101298.72;4484594;32;33240;-53
2021/03/29 07:15:09;;;;;;;;;;;;;;;22.94;38.03;101282.41;4483373;32;34176;-55
2021/03/29 07:17:40;;;;;;;;;;;;;;;22.95;38.07;101291.44;4484455;32;34113;-52
2021/03/29 07:20:07;;;;;;;;;;;;;;;22.94;38.01;101297.87;4484773;32;34964;-57
2021/03/29 07:22:35;;;;;;;;;;;;;;;22.95;37.99;101294.16;4484609;32;34024;-51
2021/03/29 07:25:03;;;;;;;;;;;;;;;22.94;37.88;101290.56;4484084;32;34138;-55
2021/03/29 07:27:31;;;;;;;;;;;;;;;22.95;37.95;101286.00;4483346;32;33792;-54
2021/03/29 07:29:57;;;;;;;;;;;;;;;22.96;38.01;101293.12;4483777;32;34091;-50
2021/03/29 07:32:25;;;;;;;;;;;;;;;22.97;38.01;101292.06;4483463;32;34046;-56
2021/03/29 07:34:52;;;;;;;;;;;;;;;22.96;37.65;101283.06;4484746;32;34689;-53
2021/03/29 07:37:29;;;;;;;;;;;;;;;22.96;37.79;101283.06;4483631;32;34661;-53
2021/03/29 07:39:56;;;;;;;;;;;;;;;22.95;37.90;101286.84;4484341;32;33826;-52
2021/03/29 07:42:23;;;;;;;;;;;;;;;22.95;37.46;101291.44;4484259;32;33336;-54
2021/03/29 07:44:57;;;;;;;;;;;;;;;22.94;37.35;101295.16;4484196;32;34973;-53
2021/03/29 07:47:42;;;;;;;;;;;;;;;22.92;37.11;101298.94;4484367;32;34116;-63
2021/03/29 07:50:10;;;;;;;;;;;;;;;22.91;36.79;101299.13;4484312;32;34366;-51
2021/03/29 07:52:40;;;;;;;;;;;;;;;22.92;36.77;101300.81;4484373;32;32993;-55
2021/03/29 07:55:22;;;;;;;;;;;;;;;22.93;36.49;101294.31;4484302;32;34143;-52
2021/03/29 07:57:49;;;;;;;;;;;;;;;22.93;36.28;101297.03;4484492;32;34063;-53
2021/03/29 08:00:22;;;;;;;;;;;;;;;22.95;36.39;101308.59;4484600;32;34151;-57
2021/03/29 08:02:55;;;;;;;;;;;;;;;22.94;36.39;101306.91;4484326;32;33083;-65
2021/03/29 08:05:34;;;;;;;;;;;;;;;22.94;36.05;101309.62;4484578;32;34043;-50
2021/03/29 08:08:05;;;;;;;;;;;;;;;22.96;35.91;101306.72;4484357;32;34117;-48
2021/03/29 08:10:51;;;;;;;;;;;;;;;23.00;35.83;101310.78;4484550;32;34873;-47
2021/03/29 08:13:33;;;;;;;;;;;;;;;23.10;36.03;101305.88;4484369;32;34052;-53
2021/03/29 08:16:01;;;;;;;;;;;;;;;23.14;36.13;101304.47;4484370;32;34072;-54
2021/03/29 08:18:28;;;;;;;;;;;;;;;23.24;36.27;101310.47;4484393;32;34160;-58
2021/03/29 08:20:56;;;;;;;;;;;;;;;23.25;36.35;101319.50;4484381;32;33352;-53
2021/03/29 08:23:34;;;;;;;;;;;;;;;23.27;35.83;101306.50;4484416;32;33276;-51
2021/03/29 08:26:12;;;;;;;;;;;;;;;23.30;35.66;101317.03;4484249;32;34043;-51
2021/03/29 08:28:57;;;;;;;;;;;;;;;23.34;35.95;101315.63;4484398;32;33785;-50
2021/03/29 08:31:44;;;;;;;;;;;;;;;23.36;36.14;101313.56;4484136;32;35149;-55
2021/03/29 08:34:11;;;;;;;;;;;;;;;23.34;36.39;101310.19;4484585;32;33864;-53
2021/03/29 08:36:38;;;;;;;;;;;;;;;23.34;36.22;101312.91;4485554;31;34024;-48
2021/03/29 08:39:06;;;;;;;;;;;;;;;23.34;36.22;101319.19;4500218;31;34951;-50
2021/03/29 08:41:33;;;;;;;;;;;;;;;23.37;36.34;101320.72;4489233;31;34301;-52
2021/03/29 08:44:02;;;;;;;;;;;;;;;23.36;36.41;101314.41;4457801;32;33572;-52
2021/03/29 08:46:30;;;;;;;;;;;;;;;23.36;36.63;101311.69;4468438;32;34059;-57
2021/03/29 08:48:57;;;;;;;;;;;;;;;23.40;36.57;101320.31;4454220;32;34104;-56
2021/03/29 08:51:26;;;;;;;;;;;;;;;23.45;36.50;101311.56;4469232;32;34406;-57
2021/03/29 08:54:03;;;;;;;;;;;;;;;23.46;36.33;101318.72;4468430;32;33314;-57
2021/03/29 08:56:41;;;;;;;;;;;;;;;23.45;36.21;101315.13;4468550;32;34097;-58
2021/03/29 08:59:08;;;;;;;;;;;;;;;23.46;36.18;101318.72;4468379;32;34987;-55
2021/03/29 09:01:41;;;;;;;;;;;;;;;23.44;36.11;101308.00;4477543;32;34096;-58
2021/03/29 09:04:08;;;;;;;;;;;;;;;23.41;36.09;101314.69;4483967;32;33705;-49
2021/03/29 09:06:35;;;;;;;;;;;;;;;23.39;36.14;101321.34;4484177;32;34144;-53
2021/03/29 09:09:09;;;;;;;;;;;;;;;23.40;36.11;101312.97;4483673;32;34949;-53
2021/03/29 09:11:43;;;;;;;;;;;;;;;23.40;36.11;101317.59;4474950;32;34132;-58
2021/03/29 09:14:10;;;;;;;;;;;;;;;23.38;36.14;101320.50;4480854;31;33366;-49
2021/03/29 09:16:37;;;;;;;;;;;;;;;23.38;36.21;101316.94;4471434;32;34855;-54
2021/03/29 09:19:17;;;;;;;;;;;;;;;23.37;36.33;101315.25;4479015;32;34186;-50
2021/03/29 09:21:45;;;;;;;;;;;;;;;23.35;36.31;101311.87;4470004;32;34516;-55
2021/03/29 09:24:18;;;;;;;;;;;;;;;23.33;36.42;101309.34;4459225;32;34174;-55
2021/03/29 09:26:58;;;;;;;;;;;;;;;23.33;36.51;101311.22;4472468;32;34125;-53
2021/03/29 09:29:31;;;;;;;;;;;;;;;23.34;36.59;101308.31;4473627;32;34249;-52
2021/03/29 09:32:13;;;;;;;;;;;;;;;23.32;36.59;101301.37;4473119;32;34213;-51
2021/03/29 09:34:43;;;;;;;;;;;;;;;23.33;36.65;101313.94;4473936;32;34095;-53
2021/03/29 09:37:17;;;;;;;;;;;;;;;23.32;36.67;101306.81;4468701;32;34010;-51
2021/03/29 09:39:43;;;;;;;;;;;;;;;23.30;36.80;101304.25;4475510;32;33726;-52
2021/03/29 09:42:14;;;;;;;;;;;;;;;23.31;36.74;101308.66;4472150;32;34089;-50
2021/03/29 09:44:41;;;;;;;;;;;;;;;23.31;36.80;101307.81;4476964;32;33987;-53
2021/03/29 09:47:08;;;;;;;;;;;;;;;23.30;36.83;101317.03;4475420;32;32839;-55
2021/03/29 09:49:50;;;;;;;;;;;;;;;23.30;36.80;101315.16;4474443;32;34991;-51
2021/03/29 09:52:17;;;;;;;;;;;;;;;23.30;36.82;101311.59;4476351;32;33790;-53
2021/03/29 09:54:45;;;;;;;;;;;;;;;23.29;37.21;101307.19;4482700;32;33264;-55
2021/03/29 09:57:15;;;;;;;;;;;;;;;23.28;36.97;101308.22;4482380;31;34165;-55
2021/03/29 09:59:43;;;;;;;;;;;;;;;23.28;37.04;101300.91;4481277;32;32842;-53
2021/03/29 10:02:20;;;;;;;;;;;;;;;23.28;37.02;101308.22;4483739;32;34032;-56
2021/03/29 10:04:56;;;;;;;;;;;;;;;23.28;37.03;101300.06;4494110;31;33413;-57
2021/03/29 10:07:23;;;;;;;;;;;;;;;23.28;37.05;101294.59;4483735;32;34063;-54
2021/03/29 10:09:50;;;;;;;;;;;;;;;23.29;37.01;101296.28;4476574;32;34088;-52
2021/03/29 10:12:27;;;;;;;;;;;;;;;23.28;37.03;101291.88;4482242;32;33671;-51
2021/03/29 10:15:03;;;;;;;;;;;;;;;23.28;37.04;101289.16;4485516;32;33994;-53
2021/03/29 10:17:30;;;;;;;;;;;;;;;23.26;37.04;101292.06;4484787;32;34225;-52
2021/03/29 10:20:07;;;;;;;;;;;;;;;23.27;37.05;101290.16;4485017;32;34292;-52
2021/03/29 10:22:34;;;;;;;;;;;;;;;23.28;37.04;101286.44;4485010;32;33770;-52
2021/03/29 10:25:06;;;;;;;;;;;;;;;23.27;37.04;101287.44;4485002;32;34179;-51
2021/03/29 10:27:36;;;;;;;;;;;;;;;23.27;37.04;101282.00;4485127;32;34051;-54
2021/03/29 10:30:04;;;;;;;;;;;;;;;23.27;37.05;101282.00;4485337;32;35005;-51
2021/03/29 10:32:31;;;;;;;;;;;;;;;23.27;37.14;101279.28;4484972;32;34145;-53
2021/03/29 10:34:58;;;;;;;;;;;;;;;23.27;37.14;101273.84;4485337;32;33998;-54
2021/03/29 10:37:26;;;;;;;;;;;;;;;23.27;37.17;101274.72;4484884;32;34870;-56
2021/03/29 10:39:53;;;;;;;;;;;;;;;23.27;37.12;101269.25;4483304;32;33765;-54
2021/03/29 10:42:22;;;;;;;;;;;;;;;23.27;37.26;101271.97;4484907;32;34799;-51
2021/03/29 10:44:49;;;;;;;;;;;;;;;23.27;37.20;101269.25;4484798;32;34001;-53
2021/03/29 10:47:15;;;;;;;;;;;;;;;23.28;37.12;101264.66;4484935;32;34172;-52
2021/03/29 10:49:42;;;;;;;;;;;;;;;23.30;37.22;101260.69;4485111;32;34037;-49
2021/03/29 10:52:09;;;;;;;;;;;;;;;23.30;37.30;101248.94;4484786;32;34003;-58
2021/03/29 10:54:36;;;;;;;;;;;;;;;23.31;37.24;101247.91;4484755;32;34586;-57
2021/03/29 10:57:03;;;;;;;;;;;;;;;23.32;37.25;101244.19;4485203;32;34901;-51
2021/03/29 10:59:30;;;;;;;;;;;;;;;23.30;37.28;101241.62;4484805;32;34091;-57
2021/03/29 11:01:59;;;;;;;;;;;;;;;23.31;37.29;101234.28;4484955;32;34082;-59
2021/03/29 11:04:26;;;;;;;;;;;;;;;23.30;37.26;101229.87;4484956;32;33256;-60
2021/03/29 11:06:53;;;;;;;;;;;;;;;23.29;37.26;101228.22;4483956;32;34194;-56
2021/03/29 11:09:21;;;;;;;;;;;;;;;23.28;37.16;101227.38;4484977;32;34117;-53
2021/03/29 11:11:48;;;;;;;;;;;;;;;23.28;37.08;101221.06;4483635;32;35004;-58
2021/03/29 11:14:15;;;;;;;;;;;;;;;23.27;37.12;101222.09;4484874;32;33652;-59
2021/03/29 11:16:42;;;;;;;;;;;;;;;23.24;37.19;101226.06;4484920;32;34785;-60
2021/03/29 11:19:09;;;;;;;;;;;;;;;23.24;37.16;101226.06;4484974;32;34974;-60
2021/03/29 11:21:36;;;;;;;;;;;;;;;23.24;37.10;101219.78;4484606;32;34158;-59
2021/03/29 11:24:03;;;;;;;;;;;;;;;23.25;37.18;101224.19;4484903;32;32948;-59
2021/03/29 11:26:30;;;;;;;;;;;;;;;23.22;37.16;101225.38;4484772;32;34025;-55
2021/03/29 11:28:57;;;;;;;;;;;;;;;23.19;37.23;101217.63;4483791;32;34423;-56
2021/03/29 11:31:24;;;;;;;;;;;;;;;23.21;37.19;101217.41;4484799;32;34523;-55
2021/03/29 11:33:53;;;;;;;;;;;;;;;23.21;37.16;101214.69;4484834;32;34036;-51
2021/03/29 11:36:20;;;;;;;;;;;;;;;23.21;37.00;101217.41;4484524;32;34500;-49
2021/03/29 11:38:47;;;;;;;;;;;;;;;23.20;36.95;101210.28;4484797;32;33997;-55
2021/03/29 11:41:14;;;;;;;;;;;;;;;23.19;36.95;101205.88;4484055;32;34602;-57
2021/03/29 11:43:41;;;;;;;;;;;;;;;23.17;36.93;101209.66;4484697;32;33076;-49
2021/03/29 11:46:08;;;;;;;;;;;;;;;23.17;36.93;101204.22;4484681;32;34929;-51
2021/03/29 11:48:36;;;;;;;;;;;;;;;23.16;36.92;101194.31;4484695;32;34153;-53
2021/03/29 11:51:04;;;;;;;;;;;;;;;23.15;36.92;101198.09;4484704;32;35536;-54
2021/03/29 11:53:31;;;;;;;;;;;;;;;23.13;36.91;101186.56;4484677;32;32977;-52
2021/03/29 11:55:58;;;;;;;;;;;;;;;23.13;36.90;101180.28;4484588;32;34093;-53
2021/03/29 11:58:25;;;;;;;;;;;;;;;23.12;36.91;101179.41;4484753;32;35017;-57
2021/03/29 12:00:58;;;;;;;;;;;;;;;23.12;36.90;101175.84;4484374;32;34778;-55
2021/03/29 12:06:21;;;;;;;;;;;;;;;23.09;36.88;101168.91;4484434;32;34127;-51
2021/03/29 12:08:51;;;;;;;;;;;;;;;23.09;36.87;101159.91;4484621;32;33959;-51
2021/03/29 12:14:04;;;;;;;;;;;;;;;23.08;36.86;101158.19;4484609;32;33705;-49
2021/03/29 12:16:37;;;;;;;;;;;;;;;23.06;36.89;101160.28;4484383;32;34124;-55
2021/03/29 12:19:04;;;;;;;;;;;;;;;23.06;36.88;101152.94;4484700;32;33697;-56
2021/03/29 12:21:34;;;;;;;;;;;;;;;23.06;36.87;101138.50;4484409;32;34265;-53
2021/03/29 12:24:02;;;;;;;;;;;;;;;23.05;36.86;101118.59;4483900;32;33046;-53
2021/03/29 12:26:29;;;;;;;;;;;;;;;23.04;36.85;101138.69;4484415;32;34223;-53
2021/03/29 12:28:56;;;;;;;;;;;;;;;23.04;36.85;101133.25;4484747;32;34039;-53
2021/03/29 12:31:23;;;;;;;;;;;;;;;23.03;36.84;101137.00;4483026;32;34686;-59
2021/03/29 12:33:50;;;;;;;;;;;;;;;23.02;36.83;101129.88;4483090;32;34277;-57
2021/03/29 12:36:17;;;;;;;;;;;;;;;23.03;36.83;101134.28;4484730;31;34132;-53
2021/03/29 12:38:52;;;;;;;;;;;;;;;23.03;36.83;101122.53;4499926;31;34141;-54
2021/03/29 12:41:21;;;;;;;;;;;;;;;23.02;36.83;101121.69;4500115;31;34094;-56
2021/03/29 12:43:57;;;;;;;;;;;;;;;23.01;36.82;101125.47;4485731;31;33999;-55
2021/03/29 12:46:24;;;;;;;;;;;;;;;23.02;36.81;101123.59;4500051;31;34203;-56
2021/03/29 12:48:51;;;;;;;;;;;;;;;23.01;36.81;101121.91;4500063;31;34196;-56
2021/03/29 12:51:18;;;;;;;;;;;;;;;22.99;36.82;101122.09;4499729;31;33872;-51